Lahaina Weather    as of  Wed 11:08 04/01      Conditions     METAR     Leeward Waters     Hawaiian Islands     Policies
TODAY
Breezy. Mostly sunny with isolated showers. Highs 79-84. East winds 10-20 mph. Chance rain 20%.
TONIGHT
Breezy. Partly cloudy with isolated showers. Lows 63-70. East winds 15-20 mph. Chance rain 20%.
THURSDAY
Breezy. Sunny with isolated showers. Highs 79-84. East winds 10-20 mph. Chance rain 20%.
THURSDAY NIGHT
Partly cloudy with isolated showers. Lows 64-71. East winds 10-15 mph. Chance rain 20%.
FRIDAY
Mostly sunny morning then becoming partly sunny. Isolated showers. Highs 79-84. East winds 10-15 mph. Chance rain 20%.
Maui Satellite
Expected Radar Hazards
Predominant Wx
Radar
Hazard Chart
Windspeed Forecast Wind Gust Forecast Tropical Outlook
Windspeed Chart
Windgust Chart
Satellite

Current Conditions TOP

LocationWeatherTemp (F)Wind
Speed
Wind
Gusts
Wind
Dir
VisibilityDewpointPressure
(mb)
Lahaina - West MauiA Few Clouds82.011.523.0Northeast15.0064.4--
Lanai CityPartly Cloudy74.03.5--Southwest10.0064.01016.8
KaunakakaiPartly Cloudy79.011.517.3Northeast10.0064.91017.3
KahuluiPartly Cloudy80.04.6--Northwest10.0064.01017.2
HonoluluPartly Cloudy78.09.216.1East10.0064.01016.3
Kailua / KonaA Few Clouds84.013.8--Northwest10.0061.01015.6

METAR TOP

PHJH 011950Z 04012KT 15SM FEW030 FEW050 27/18 A3003
PHNY 012058Z AUTO 21006KT BKN019 OVC031 22/18 A3007 RMK AO2 SLP166
PHMK 012054Z 03008KT 360V060 10SM SCT032 27/19 A3003 RMK AO2
PHOG 012054Z 05015G21KT 10SM FEW035 29/18 A3001 RMK AO2 SLP168
PHNL 012053Z 08008G14KT 10SM FEW025 SCT037 SCT048 26/18 A3002 RMK
PHKO 012053Z 26006KT 10SM CLR 28/17 A2999 RMK AO2 SLP155 T02830172
Tap to learn about METAR'

Leeward Waters Forecasts TOP

MAUI COUNTY LEEWARD WATERS MAALAEA BAY PAILOLO CHANNEL
REST OF TODAY
East winds 20 kt. Wind waves 7 ft. Isolated showers afternoon.
Headlines
SMALL CRAFT ADVISORY IN EFFECT UNTIL 6 PM HST THURSDAY
Headlines
SMALL CRAFT ADVISORY IN EFFECT UNTIL 6 PM HST THURSDAY
TONIGHT
East winds 20 kt. Wind waves 7 ft.
REST OF TODAY
Northeast winds-25 kt. Wind waves 7 ft. Isolated showers afternoon.
REST OF TODAY
East winds-25 kt. Wind waves 11 ft. Isolated showers.
THURSDAY
East winds 15 kt. Wind waves 7 ft.
TONIGHT
Northeast winds-25 kt. Wind waves 7 ft.
TONIGHT
East winds-25 kt. Wind waves 11 ft. Isolated showers.
THURSDAY NIGHT
Northeast winds 15 kt. Wind waves 4 ft.
THURSDAY
Northeast winds-25 kt. Wind waves 7 ft.
THURSDAY
East winds-25 kt. Wind waves 11 ft. Isolated showers.
FRIDAY
East winds 10 kt. Wind waves 4 ft morning then 2 ft or less.
THURSDAY NIGHT
Northeast winds 15 kt. Wind waves 4 ft.
THURSDAY NIGHT
East winds 20 kt. Wind waves 6 ft. Isolated showers.

Hawaiian Islands Weather TOP

Synopsis: A high-the northeast will keep trade winds blowing over the area but a trough will keep winds light near Kauai. Showers will become more active starting tomorrow as tropical moisture spreads over the islands from the southeast. It will turn drier and breezier early next week as a new high builds north the area and the tropical moisture moves away-the west.
Discussion: High pressure dominates most the north central Pacific. A 1035 mb high far northeast the islands is producing locally breezy trade winds over most the area but a weak north-south trough is keeping wind speeds light near Kauai. Moisture associated with the trough is movingf-the northwest today, so dry trade-wind weather will prevail through tomorrow. Satellite loops show an area layered clouds and isolated thunderstorms near 300 miles southeast the Big Island. These clouds are associated, weak tropical disturbance. After days widely differing forecasts ...
Aviation: Strong trade winds will produce temp mod turb southwest the islands below 8000 ft and airmet tango is in effect for this turbulence. Vfr conditions will prevail, but isolated MVFR conditions are possible, mainly over windward areas and over central Lanai.
Marine: A small craft advisory continues for the windier waters near the Big Island and Maui county due-strong easterly trade winds. A trough may drop the winds below the advisory level on Friday. Winds will likely be back up-advisory levels Maui by Saturday. A long fetch fresh-strong trade winds east the islands will boost surf along east facing shores through early next week and a series small northwest and south swells will continue, but surf is expected-remain below the advisory thresholds for the next several days.

Policies TOP

Terms of Service
USE THIS SITE AT YOUR OWN RISK!!! This page is an artistic expression not scientific communication. No warranties expressed or implied. None. Zip. Nada. This entertainment site is a programming exercise for retrieving NOAA/NWS/NASA data and experimenting with layout. No site data are verified. Timeliness not assured. Browsers other than Chrome might be sad.

Privacy
lahainaweather.com (or .org, .net) does NOT request, record nor retain any personally identifiable information. Page views may be counted. Caller's IP address may be logged.